Terminal Aerodrome Forecast
Issued by NWS Shreveport, LA

Home | Current Version | Previous Version | Text Only | Print | Product List | Glossary On
Versions: 1 2 3 4 5 6 7 8 9 10 11 12 13 14 15 16 17 18 19 20 21 22
000
FTUS44 KSHV 180208 AAA
TAFLFK
TAF AMD
KLFK 180208Z 1802/1824 12003KT P6SM -RA SCT030 OVC100
     FM180600 13006KT P6SM VCTS SCT040CB OVC080
      TEMPO 1806/1810 VRB12G20KT 2SM TSRA BR OVC015CB
     FM181000 VRB06KT 2SM TSRA BR OVC008CB
     FM181600 VRB06KT P6SM VCTS BKN015CB BKN100 OVC250
     FM182000 VRB06KT P6SM SCT035 BKN120 OVC250=

USA.gov is the U.S. government's official web portal to all federal, state and local government web resources and services.